createdAt,value
2019-01-26T00:01:51.007Z,10.43
2019-01-26T00:04:22.115Z,14.30
2019-01-26T00:06:53.385Z,13.17
2019-01-26T00:09:24.727Z,10.60
2019-01-26T00:11:55.931Z,10.13
2019-01-26T00:14:27.062Z,10.63
2019-01-26T00:16:58.375Z,12.80
2019-01-26T00:19:29.680Z,11.43
2019-01-26T00:22:00.944Z,15.23
2019-01-26T00:24:32.239Z,11.60
2019-01-26T00:27:03.480Z,11.77
2019-01-26T00:29:34.927Z,14.70
2019-01-26T00:32:06.493Z,12.50
2019-01-26T00:34:37.870Z,12.33
2019-01-26T00:37:09.137Z,13.60
2019-01-26T00:39:40.289Z,24.70
2019-01-26T00:42:11.543Z,17.90
2019-01-26T00:44:42.678Z,25.43
2019-01-26T00:47:13.879Z,12.00
2019-01-26T00:49:45.297Z,11.03
2019-01-26T00:52:16.400Z,12.23
2019-01-26T00:54:47.631Z,11.73
2019-01-26T00:57:18.660Z,13.23
2019-01-26T00:59:49.873Z,10.83
2019-01-26T01:02:21.099Z,10.80
2019-01-26T01:04:52.383Z,13.40
2019-01-26T01:07:23.608Z,11.57
2019-01-26T01:09:54.905Z,12.87
2019-01-26T01:12:26.060Z,13.23
2019-01-26T01:14:57.247Z,14.90
2019-01-26T01:17:28.507Z,10.83
2019-01-26T01:19:59.946Z,11.53
2019-01-26T01:22:31.095Z,10.97
2019-01-26T01:25:02.151Z,9.07
2019-01-26T01:27:33.267Z,13.40
2019-01-26T01:30:05.202Z,12.20
2019-01-26T01:32:36.334Z,14.33
2019-01-26T01:35:07.747Z,12.07
2019-01-26T01:37:39.045Z,14.50
2019-01-26T01:40:10.838Z,16.63
2019-01-26T01:42:42.554Z,11.87
2019-01-26T01:45:16.474Z,12.50
2019-01-26T01:47:47.831Z,11.73
2019-01-26T01:50:19.414Z,12.43
2019-01-26T01:52:50.794Z,12.80
2019-01-26T01:55:21.940Z,13.60
2019-01-26T01:57:53.256Z,12.53
2019-01-26T02:00:25.751Z,12.43
2019-01-26T02:02:56.848Z,15.67
2019-01-26T02:05:28.116Z,15.27
2019-01-26T02:07:59.170Z,15.97
2019-01-26T02:13:06.738Z,16.80
2019-01-26T02:15:37.999Z,16.63
2019-01-26T02:18:09.463Z,15.47
2019-01-26T02:20:40.935Z,15.97
2019-01-26T02:23:12.124Z,15.30
2019-01-26T02:25:43.378Z,15.13
2019-01-26T02:28:15.821Z,17.20
2019-01-26T02:30:47.315Z,21.07
2019-01-26T02:33:18.702Z,19.13
2019-01-26T02:35:49.875Z,21.77
2019-01-26T02:38:21.024Z,23.30
2019-01-26T02:40:52.384Z,16.87
2019-01-26T02:43:23.546Z,17.77
2019-01-26T02:45:55.753Z,18.90
2019-01-26T02:48:26.982Z,17.93
2019-01-26T02:50:58.257Z,15.57
2019-01-26T02:53:29.507Z,20.00
2019-01-26T02:56:00.643Z,20.37
2019-01-26T02:58:31.898Z,20.10
2019-01-26T03:01:03.194Z,19.23
2019-01-26T03:03:34.525Z,19.97
2019-01-26T03:06:06.009Z,20.03
2019-01-26T03:08:38.342Z,19.00
2019-01-26T03:11:09.792Z,24.13
2019-01-26T03:13:41.069Z,20.83
2019-01-26T03:16:12.168Z,20.10
2019-01-26T03:18:43.531Z,22.60
2019-01-26T03:21:14.841Z,20.33
2019-01-26T03:23:46.006Z,19.83
2019-01-26T03:26:17.342Z,21.33
2019-01-26T03:28:48.421Z,22.40
2019-01-26T03:31:19.694Z,21.03
2019-01-26T03:33:51.000Z,23.50
2019-01-26T03:36:22.214Z,25.43
2019-01-26T03:38:54.738Z,23.10
2019-01-26T03:41:25.816Z,20.70
2019-01-26T03:43:56.880Z,25.70
2019-01-26T03:46:28.184Z,24.40
2019-01-26T03:48:59.444Z,28.43
2019-01-26T03:51:30.640Z,28.10
2019-01-26T03:54:01.723Z,25.80
2019-01-26T03:56:33.145Z,22.97
2019-01-26T03:59:04.849Z,25.33
2019-01-26T04:01:36.393Z,24.90
2019-01-26T04:04:07.829Z,29.43
2019-01-26T04:06:39.102Z,30.50
2019-01-26T04:09:10.917Z,27.80
2019-01-26T04:11:42.177Z,27.57
2019-01-26T04:14:13.459Z,31.23
2019-01-26T04:16:44.873Z,27.37
2019-01-26T04:19:16.017Z,29.10
2019-01-26T04:21:47.276Z,27.97
2019-01-26T04:24:18.434Z,31.10
2019-01-26T04:26:49.651Z,33.40
2019-01-26T04:29:20.871Z,34.10
2019-01-26T04:31:51.925Z,35.87
2019-01-26T04:34:23.137Z,35.80
2019-01-26T04:36:55.988Z,34.57
2019-01-26T04:39:27.306Z,36.23
2019-01-26T04:41:58.354Z,31.47
2019-01-26T04:44:29.681Z,32.37
2019-01-26T04:47:00.776Z,32.87
2019-01-26T04:49:32.195Z,37.80
2019-01-26T04:52:03.296Z,45.57
2019-01-26T04:54:35.407Z,35.23
2019-01-26T04:57:06.812Z,40.33
2019-01-26T04:59:38.049Z,37.57
2019-01-26T05:02:09.366Z,40.10
2019-01-26T05:04:40.456Z,36.20
2019-01-26T05:07:15.340Z,35.20
2019-01-26T05:09:46.445Z,40.90
2019-01-26T05:12:17.788Z,38.17
2019-01-26T05:14:49.166Z,39.63
2019-01-26T05:17:20.420Z,42.17
2019-01-26T05:19:51.389Z,37.20
2019-01-26T05:22:24.702Z,46.07
2019-01-26T05:24:56.117Z,46.00
2019-01-26T05:27:27.293Z,43.97
2019-01-26T05:29:58.593Z,45.50
2019-01-26T05:32:30.404Z,43.87
2019-01-26T05:35:01.622Z,42.67
2019-01-26T05:37:32.970Z,44.97
2019-01-26T05:40:04.798Z,45.63
2019-01-26T05:42:36.001Z,50.13
2019-01-26T05:45:08.446Z,47.17
2019-01-26T05:47:47.597Z,46.03
2019-01-26T05:50:18.317Z,45.53
2019-01-26T05:52:49.559Z,49.33
2019-01-26T05:55:20.832Z,45.33
2019-01-26T05:57:52.001Z,52.77
2019-01-26T06:00:30.527Z,50.67
2019-01-26T06:03:02.006Z,52.43
2019-01-26T06:05:33.278Z,54.93
2019-01-26T06:08:04.650Z,50.40
2019-01-26T06:10:36.148Z,52.63
2019-01-26T06:13:07.521Z,51.83
2019-01-26T06:15:38.837Z,46.80
2019-01-26T06:18:10.016Z,49.40
2019-01-26T06:20:41.273Z,50.67
2019-01-26T06:23:12.584Z,51.13
2019-01-26T06:25:43.693Z,50.03
2019-01-26T06:28:14.970Z,48.03
2019-01-26T06:30:47.965Z,59.53
2019-01-26T06:33:19.456Z,50.87
2019-01-26T06:35:50.838Z,50.37
2019-01-26T06:38:22.257Z,48.37
2019-01-26T06:40:53.509Z,57.87
2019-01-26T06:43:24.658Z,50.87
2019-01-26T06:45:55.999Z,53.10
2019-01-26T06:48:27.202Z,59.57
2019-01-26T06:50:58.570Z,51.43
2019-01-26T06:53:29.987Z,57.40
2019-01-26T06:56:00.981Z,63.50
2019-01-26T06:58:33.184Z,57.47
2019-01-26T07:01:04.646Z,55.47
2019-01-26T07:03:35.934Z,56.27
2019-01-26T07:06:19.536Z,55.03
2019-01-26T07:08:50.771Z,56.87
2019-01-26T07:11:22.071Z,55.53
2019-01-26T07:13:53.159Z,55.70
2019-01-26T07:16:25.182Z,61.37
2019-01-26T07:18:57.586Z,56.37
2019-01-26T07:21:28.913Z,60.33
2019-01-26T07:24:00.416Z,57.17
2019-01-26T07:26:31.671Z,59.57
2019-01-26T07:29:03.091Z,53.20
2019-01-26T07:31:34.496Z,59.27
2019-01-26T07:34:06.850Z,58.60
2019-01-26T07:36:40.042Z,60.50
2019-01-26T07:39:11.831Z,59.23
2019-01-26T07:41:42.923Z,55.87
2019-01-26T07:44:14.173Z,61.40
2019-01-26T07:46:45.376Z,60.67
2019-01-26T07:49:18.974Z,59.33
2019-01-26T07:51:50.248Z,57.90
2019-01-26T07:54:21.548Z,65.00
2019-01-26T07:56:52.868Z,57.10
2019-01-26T07:59:24.075Z,63.40
2019-01-26T08:01:55.496Z,58.90
2019-01-26T08:04:26.832Z,59.93
2019-01-26T08:06:58.132Z,69.80
2019-01-26T08:09:29.262Z,66.17
2019-01-26T08:12:00.640Z,70.67
2019-01-26T08:14:31.959Z,61.23
2019-01-26T08:17:03.190Z,62.27
2019-01-26T08:19:34.425Z,63.30
2019-01-26T08:22:05.781Z,61.07
2019-01-26T08:24:37.181Z,62.90
2019-01-26T08:27:08.312Z,72.23
2019-01-26T08:29:39.619Z,64.93
2019-01-26T08:32:10.939Z,64.20
2019-01-26T08:34:42.121Z,63.33
2019-01-26T08:37:13.595Z,68.33
2019-01-26T08:39:44.832Z,66.00
2019-01-26T08:42:15.951Z,62.23
2019-01-26T08:44:47.169Z,68.43
2019-01-26T08:47:18.361Z,61.97
2019-01-26T08:49:49.617Z,67.10
2019-01-26T08:52:20.940Z,63.83
2019-01-26T08:54:54.294Z,58.13
2019-01-26T08:57:25.206Z,64.77
2019-01-26T08:59:56.525Z,62.37
2019-01-26T09:03:04.901Z,59.90
2019-01-26T09:05:40.986Z,62.97
2019-01-26T09:08:13.964Z,69.97
2019-01-26T09:10:45.251Z,61.23
2019-01-26T09:13:17.622Z,63.60
2019-01-26T09:15:48.961Z,64.80
2019-01-26T09:18:20.316Z,59.13
2019-01-26T09:20:51.793Z,54.67
2019-01-26T09:23:22.882Z,63.63
2019-01-26T09:25:54.447Z,62.13
2019-01-26T09:28:25.409Z,64.73
2019-01-26T09:30:56.518Z,60.63
2019-01-26T09:33:28.563Z,58.07
2019-01-26T09:36:00.344Z,58.00
2019-01-26T09:38:31.718Z,63.03
2019-01-26T09:41:03.391Z,53.07
2019-01-26T09:43:34.799Z,57.27
2019-01-26T09:46:06.307Z,52.33
2019-01-26T09:48:37.660Z,63.87
2019-01-26T09:51:09.101Z,57.27
2019-01-26T09:53:40.199Z,53.90
2019-01-26T09:56:11.564Z,63.93
2019-01-26T09:58:42.854Z,61.23
2019-01-26T10:01:14.302Z,60.03
2019-01-26T10:03:45.714Z,52.23
2019-01-26T10:06:17.177Z,60.20
2019-01-26T10:08:48.552Z,55.70
2019-01-26T10:11:19.700Z,58.83
2019-01-26T10:13:50.959Z,58.93
2019-01-26T10:16:22.491Z,62.90
2019-01-26T10:18:55.238Z,62.87
2019-01-26T10:21:26.498Z,59.37
2019-01-26T10:23:57.622Z,50.93
2019-01-26T10:26:28.823Z,57.73
2019-01-26T10:29:00.065Z,60.53
2019-01-26T10:31:31.397Z,56.93
2019-01-26T10:34:02.679Z,53.57
2019-01-26T10:36:48.127Z,53.20
2019-01-26T10:39:19.629Z,56.63
2019-01-26T10:42:10.105Z,58.20
2019-01-26T10:44:42.444Z,52.57
2019-01-26T10:47:13.607Z,54.67
2019-01-26T10:49:44.919Z,56.43
2019-01-26T10:52:16.164Z,53.10
2019-01-26T10:54:47.340Z,57.17
2019-01-26T10:57:18.760Z,57.27
2019-01-26T10:59:49.912Z,56.63
2019-01-26T11:02:21.223Z,54.77
2019-01-26T11:04:52.192Z,54.77
2019-01-26T11:07:23.346Z,59.03
2019-01-26T11:09:54.441Z,53.97
2019-01-26T11:12:25.765Z,63.07
2019-01-26T11:14:56.927Z,52.73
2019-01-26T11:17:28.253Z,62.60
2019-01-26T11:19:59.389Z,54.90
2019-01-26T11:22:30.768Z,59.00
2019-01-26T11:25:02.133Z,57.93
2019-01-26T11:27:33.438Z,56.30
2019-01-26T11:30:07.935Z,61.37
2019-01-26T11:32:39.201Z,54.60
2019-01-26T11:35:12.516Z,51.70
2019-01-26T11:37:43.910Z,53.13
2019-01-26T11:40:20.833Z,57.23
2019-01-26T11:42:53.776Z,59.50
2019-01-26T11:45:47.106Z,57.47
2019-01-26T11:48:21.759Z,59.40
2019-01-26T11:50:58.406Z,53.00
2019-01-26T11:53:29.803Z,54.93
2019-01-26T11:56:05.958Z,55.77
2019-01-26T11:58:37.297Z,56.87
2019-01-26T12:01:26.705Z,55.60
2019-01-26T12:04:16.568Z,52.83
2019-01-26T12:06:56.070Z,59.67
2019-01-26T12:09:27.235Z,58.93
2019-01-26T12:11:58.488Z,58.03
2019-01-26T12:14:29.762Z,66.73
2019-01-26T12:17:02.696Z,63.27
2019-01-26T12:19:34.061Z,60.20
2019-01-26T12:22:05.600Z,58.83
2019-01-26T12:24:36.867Z,57.67
2019-01-26T12:27:07.901Z,57.97
2019-01-26T12:29:39.174Z,62.17
2019-01-26T12:32:10.319Z,63.47
2019-01-26T12:34:41.502Z,60.63
2019-01-26T12:37:12.700Z,58.03
2019-01-26T12:39:44.010Z,59.10
2019-01-26T12:42:15.367Z,51.53
2019-01-26T12:44:46.683Z,53.13
2019-01-26T12:47:18.007Z,56.67
2019-01-26T12:49:49.317Z,57.87
2019-01-26T12:52:20.480Z,53.80
2019-01-26T12:54:51.856Z,58.73
2019-01-26T12:57:23.144Z,55.03
2019-01-26T12:59:54.343Z,55.93
2019-01-26T13:02:28.571Z,56.93
2019-01-26T13:04:59.841Z,58.17
2019-01-26T13:07:32.396Z,54.27
2019-01-26T13:10:03.879Z,58.60
2019-01-26T13:12:35.300Z,53.00
2019-01-26T13:15:07.420Z,59.27
2019-01-26T13:17:38.669Z,57.50
2019-01-26T13:20:11.443Z,51.13
2019-01-26T13:22:42.890Z,54.87
2019-01-26T13:25:15.712Z,55.40
2019-01-26T13:27:46.999Z,57.50
2019-01-26T13:30:19.706Z,60.77
2019-01-26T13:32:51.162Z,57.80
2019-01-26T13:35:22.374Z,64.63
2019-01-26T13:37:53.752Z,54.17
2019-01-26T13:40:25.336Z,55.00
2019-01-26T13:42:57.643Z,53.40
2019-01-26T13:45:29.050Z,57.90
2019-01-26T13:48:00.276Z,56.80
2019-01-26T13:50:31.741Z,53.17
2019-01-26T13:53:04.329Z,55.10
2019-01-26T13:55:35.743Z,48.90
2019-01-26T13:58:07.067Z,48.13
2019-01-26T14:00:38.707Z,55.03
2019-01-26T14:03:11.117Z,51.20
2019-01-26T14:05:42.323Z,53.17
2019-01-26T14:08:13.588Z,52.80
2019-01-26T14:10:45.035Z,51.07
2019-01-26T14:13:16.294Z,50.17
2019-01-26T14:15:47.640Z,54.00
2019-01-26T14:18:20.412Z,53.13
2019-01-26T14:20:51.820Z,55.77
2019-01-26T14:23:23.029Z,51.37
2019-01-26T14:25:54.443Z,57.53
2019-01-26T14:28:27.161Z,54.87
2019-01-26T14:31:02.801Z,55.60
2019-01-26T14:33:34.255Z,60.47
2019-01-26T14:36:06.937Z,64.93
2019-01-26T14:38:38.306Z,61.17
2019-01-26T14:41:12.281Z,58.33
2019-01-26T14:43:44.691Z,56.93
2019-01-26T14:46:16.029Z,61.17
2019-01-26T14:48:51.737Z,55.07
2019-01-26T14:51:23.126Z,58.97
2019-01-26T14:53:54.360Z,51.60
2019-01-26T14:56:25.567Z,63.80
2019-01-26T14:58:56.785Z,67.63
2019-01-26T15:01:27.999Z,66.73
2019-01-26T15:03:59.367Z,65.67
2019-01-26T15:06:32.873Z,63.43
2019-01-26T15:09:05.738Z,67.17
2019-01-26T15:11:37.039Z,68.23
2019-01-26T15:14:08.333Z,64.47
2019-01-26T15:16:39.637Z,62.53
2019-01-26T15:19:10.654Z,68.67
2019-01-26T15:21:41.964Z,66.83
2019-01-26T15:24:13.174Z,67.67
2019-01-26T15:26:44.504Z,69.23
2019-01-26T15:29:15.721Z,78.37
2019-01-26T15:31:47.005Z,75.70
2019-01-26T15:34:18.325Z,74.70
2019-01-26T15:36:49.571Z,68.37
2019-01-26T15:39:21.694Z,67.07
2019-01-26T15:41:53.188Z,69.80
2019-01-26T15:44:24.536Z,72.80
2019-01-26T15:46:55.856Z,79.97
2019-01-26T15:49:27.115Z,76.10
2019-01-26T15:51:58.578Z,75.63
2019-01-26T15:54:31.370Z,76.73
2019-01-26T15:57:02.860Z,68.43
2019-01-26T15:59:34.155Z,74.60
2019-01-26T16:02:05.732Z,72.63
2019-01-26T16:04:37.142Z,82.47
2019-01-26T16:07:08.686Z,68.87
2019-01-26T16:09:40.023Z,69.67
2019-01-26T16:12:11.235Z,71.43
2019-01-26T16:14:42.521Z,81.37
2019-01-26T16:17:13.898Z,80.23
2019-01-26T16:19:45.172Z,72.47
2019-01-26T16:22:16.491Z,77.67
2019-01-26T16:24:48.006Z,71.50
2019-01-26T16:27:19.475Z,73.97
2019-01-26T16:29:50.719Z,73.23
2019-01-26T16:32:22.029Z,75.57
2019-01-26T16:34:53.466Z,73.80
2019-01-26T16:37:24.751Z,76.47
2019-01-26T16:39:56.045Z,75.63
2019-01-26T16:42:27.466Z,75.37
2019-01-26T16:44:58.811Z,76.90
2019-01-26T16:47:30.090Z,77.40
2019-01-26T16:50:01.450Z,80.23
2019-01-26T16:52:32.640Z,87.00
2019-01-26T16:55:04.057Z,81.20
2019-01-26T16:57:35.278Z,81.73
2019-01-26T17:00:10.904Z,74.27
2019-01-26T17:02:42.398Z,79.50
2019-01-26T17:05:14.058Z,74.50
2019-01-26T17:07:45.416Z,84.37
2019-01-26T17:10:17.893Z,79.93
2019-01-26T17:12:49.498Z,80.33
2019-01-26T17:15:21.270Z,84.97
2019-01-26T17:17:52.514Z,85.17
2019-01-26T17:20:26.114Z,87.60
2019-01-26T17:22:57.918Z,80.13
2019-01-26T17:25:29.131Z,83.20
2019-01-26T17:28:00.419Z,79.83
2019-01-26T17:30:33.971Z,85.83
2019-01-26T17:33:07.634Z,81.83
2019-01-26T17:35:38.939Z,86.47
2019-01-26T17:38:10.479Z,81.63
2019-01-26T17:40:41.800Z,77.97
2019-01-26T17:43:13.117Z,90.63
2019-01-26T17:45:44.551Z,86.63
2019-01-26T17:48:15.849Z,87.40
2019-01-26T17:50:47.174Z,86.17
2019-01-26T17:53:18.491Z,89.70
2019-01-26T17:55:49.655Z,84.47
2019-01-26T17:58:20.911Z,86.00
2019-01-26T18:00:59.249Z,86.80
2019-01-26T18:03:30.675Z,88.03
2019-01-26T18:06:02.190Z,84.67
2019-01-26T18:08:33.663Z,77.77
2019-01-26T18:11:05.021Z,80.20
2019-01-26T18:13:36.302Z,81.83
2019-01-26T18:16:07.582Z,75.17
2019-01-26T18:18:38.786Z,80.93
2019-01-26T18:21:11.174Z,80.17
2019-01-26T18:23:42.663Z,69.03
2019-01-26T18:26:13.823Z,68.47
2019-01-26T18:28:45.059Z,79.50
2019-01-26T18:31:16.381Z,76.33
2019-01-26T18:33:47.708Z,70.73
2019-01-26T18:36:19.072Z,77.27
2019-01-26T18:38:50.320Z,81.37
2019-01-26T18:41:21.637Z,72.30
2019-01-26T18:43:55.504Z,78.37
2019-01-26T18:46:26.870Z,75.73
2019-01-26T18:48:58.197Z,72.43
2019-01-26T18:51:29.528Z,73.50
2019-01-26T18:54:00.829Z,82.87
2019-01-26T18:56:32.066Z,80.67
2019-01-26T18:59:03.271Z,80.73
2019-01-26T19:01:34.286Z,80.17
2019-01-26T19:04:13.347Z,80.97
2019-01-26T19:06:45.787Z,77.10
2019-01-26T19:09:16.934Z,81.40
2019-01-26T19:11:48.242Z,77.93
2019-01-26T19:14:19.771Z,81.10
2019-01-26T19:16:53.182Z,80.23
2019-01-26T19:19:24.112Z,82.90
2019-01-26T19:21:55.454Z,76.70
2019-01-26T19:24:26.722Z,72.63
2019-01-26T19:26:57.764Z,81.47
2019-01-26T19:29:30.710Z,70.50
2019-01-26T19:32:01.981Z,74.57
2019-01-26T19:34:33.526Z,75.67
2019-01-26T19:37:09.276Z,70.93
2019-01-26T19:39:38.228Z,72.27
2019-01-26T19:42:09.641Z,73.10
2019-01-26T19:44:40.935Z,80.80
2019-01-26T19:47:12.125Z,80.60
2019-01-26T19:49:43.493Z,82.33
2019-01-26T19:52:14.883Z,71.70
2019-01-26T19:54:46.204Z,78.73
2019-01-26T19:57:17.562Z,72.23
2019-01-26T19:59:50.951Z,73.33
2019-01-26T20:02:22.136Z,73.87
2019-01-26T20:04:53.605Z,76.53
2019-01-26T20:07:25.211Z,79.87
2019-01-26T20:09:56.517Z,67.50
2019-01-26T20:12:27.893Z,67.10
2019-01-26T20:14:59.199Z,76.93
2019-01-26T20:17:30.297Z,81.53
2019-01-26T20:20:01.772Z,72.57
2019-01-26T20:22:33.294Z,71.43
2019-01-26T20:25:05.017Z,71.57
2019-01-26T20:27:36.422Z,76.07
2019-01-26T20:30:11.591Z,68.80
2019-01-26T20:32:45.513Z,72.00
2019-01-26T20:35:18.662Z,74.30
2019-01-26T20:37:49.877Z,72.40
2019-01-26T20:40:21.355Z,75.47
2019-01-26T20:42:52.604Z,75.50
2019-01-26T20:45:25.943Z,79.27
2019-01-26T20:47:57.282Z,77.90
2019-01-26T20:50:28.499Z,75.83
2019-01-26T20:52:59.702Z,78.27
2019-01-26T20:55:31.194Z,72.33
2019-01-26T20:58:03.954Z,79.93
2019-01-26T21:00:35.351Z,74.93
2019-01-26T21:03:08.826Z,73.87
2019-01-26T21:05:40.193Z,75.03
2019-01-26T21:08:11.532Z,81.13
2019-01-26T21:10:42.677Z,81.90
2019-01-26T21:13:16.371Z,83.97
2019-01-26T21:15:47.159Z,78.70
2019-01-26T21:18:18.441Z,82.33
2019-01-26T21:20:49.796Z,83.97
2019-01-26T21:23:21.004Z,81.27
2019-01-26T21:25:52.162Z,75.87
2019-01-26T21:28:23.408Z,80.50
2019-01-26T21:30:56.598Z,79.67
2019-01-26T21:33:27.779Z,81.57
2019-01-26T21:35:59.191Z,80.90
2019-01-26T21:38:31.794Z,85.50
2019-01-26T21:41:03.047Z,79.97
2019-01-26T21:43:34.243Z,92.03
2019-01-26T21:46:06.037Z,84.57
2019-01-26T21:48:39.638Z,81.00
2019-01-26T21:51:11.002Z,77.40
2019-01-26T21:53:43.265Z,82.10
2019-01-26T21:56:16.529Z,75.53
2019-01-26T21:58:47.628Z,83.63
2019-01-26T22:01:18.843Z,79.53
2019-01-26T22:03:50.298Z,83.70
2019-01-26T22:06:21.608Z,78.47
2019-01-26T22:08:55.156Z,77.30
2019-01-26T22:11:26.376Z,81.03
2019-01-26T22:13:57.749Z,80.37
2019-01-26T22:16:29.161Z,76.97
2019-01-26T22:19:00.565Z,72.73
2019-01-26T22:21:31.841Z,79.87
2019-01-26T22:24:03.169Z,79.87
2019-01-26T22:26:34.397Z,84.53
2019-01-26T22:29:05.930Z,78.93
2019-01-26T22:31:37.256Z,73.33
2019-01-26T22:34:08.567Z,83.67
2019-01-26T22:36:39.940Z,75.37
2019-01-26T22:39:11.234Z,75.67
2019-01-26T22:41:42.530Z,74.13
2019-01-26T22:44:13.820Z,80.73
2019-01-26T22:46:45.034Z,81.47
2019-01-26T22:49:16.241Z,75.63
2019-01-26T22:51:53.277Z,77.40
2019-01-26T22:54:20.553Z,81.73
2019-01-26T22:56:51.829Z,71.40
2019-01-26T22:59:23.034Z,74.43
2019-01-26T23:02:01.735Z,84.57
2019-01-26T23:04:57.017Z,78.23
2019-01-26T23:07:35.222Z,73.63
2019-01-26T23:10:47.345Z,80.77
2019-01-26T23:13:45.676Z,79.47
2019-01-26T23:16:55.560Z,77.30
2019-01-26T23:19:37.408Z,75.87
2019-01-26T23:22:46.915Z,81.33
2019-01-26T23:25:48.619Z,72.40
2019-01-26T23:28:32.744Z,76.37
2019-01-26T23:31:21.745Z,79.53
2019-01-26T23:33:57.935Z,74.20
2019-01-26T23:36:29.121Z,77.47
2019-01-26T23:39:02.419Z,78.37
2019-01-26T23:41:34.065Z,79.00
2019-01-26T23:44:05.530Z,75.63
2019-01-26T23:46:37.097Z,75.30
2019-01-26T23:49:08.323Z,79.23
2019-01-26T23:51:39.866Z,71.87
2019-01-26T23:54:10.920Z,70.33
2019-01-26T23:56:42.307Z,69.13
2019-01-26T23:59:13.435Z,71.93
